Aérodrome :
LOGIN :

S'inscrire | Disclaimer

   EN    FR    IT 

 










Légende :    VFR   VFR Marginal   IFR   IFR Intensif   IFR Très Intensif
Visi : 
Plafond : 
>= 8 km
>= 3000ft
5 à 8 km
1000 à 3000 ft
1500m à 5 km
500 à 1000 ft
800 à 1500m
200 à 500 ft
< 800m
< 200 ft
Symboles :   Orages  Brouillard  Fortes neiges  Fortes précipitations  Vent > 20 kt
SIGMETs :   Divers  Orages  Givrage  Turbulence  Onde Orograph.  Cendres Volcan.






- Altitude de l'aérodrome : 22 ft
- Code IATA : SKG


LGTS - Thessaloniki

DERNIER METAR :
  • 040850Z 30005KT 9999 FEW025 21/13 Q1010 NOSIG

METARs EXPIRÉS :
  • 040820Z 31004KT 9999 FEW025 21/13 Q1011 NOSIG
  • 040750Z 29004KT CAVOK 20/12 Q1011 NOSIG
  • 040720Z 31003KT CAVOK 19/12 Q1010 NOSIG
  • 040650Z 29004KT CAVOK 20/12 Q1010 NOSIG
  • 040620Z 30003KT CAVOK 19/12 Q1010 NOSIG

TAF TAF LGTS
Valide du 04 à 06h jusqu'au 05 à 06h UTC


040500Z 0406/0506 VRB03KT CAVOK
BECMG 0410/0412 16015KT 9999 FEW030
BECMG 0422/0424 16005KT



MET'MAP, la Météo Aéronautique d'un coup d'oeil ! - Copyright ORBIFLY Décembre 2007 - Disclaimer

ORBIFLY MET'MAP TEAM :

Programmation & Développement : Alexandra Zaïnal
Sur une idée originale de : Baudouin d'Aumeries
Assistance à la programmation : Marc-Olivier Méhu
Soutien technique & logistique : Manuel Goepfert

Contact : metmap@orbifly.com




SOURCES & CREDITS :

   NOAA